Time;durP1;ratioP1;P1;durP2;ratioP2;P2;SDS_P1;SDS_P2;PMS_P1;PMS_P2;Temp;Humidity;BMP_temperature;BMP_pressure;BME280_temperature;BME280_humidity;BME280_pressure;Samples;Min_cycle;Max_cycle;Signal;HPM_P1;HPM_P2
2021/09/05 00:00:39;;;;;;;10.40;5.68;;;;;;;15.44;58.43;100715.16;4864366;28;96880;-85
2021/09/05 00:03:05;;;;;;;8.75;5.88;;;;;;;15.44;58.06;100716.94;4848104;28;101403;-84
2021/09/05 00:05:30;;;;;;;7.05;5.60;;;;;;;15.34;58.42;100714.75;4880333;28;98098;-85
2021/09/05 00:07:56;;;;;;;9.77;6.05;;;;;;;15.32;58.02;100715.75;4864195;28;96599;-85
2021/09/05 00:10:21;;;;;;;6.65;5.03;;;;;;;15.26;58.33;100710.75;4864415;28;96891;-84
2021/09/05 00:12:47;;;;;;;7.63;5.38;;;;;;;15.19;58.64;100723.41;4879390;28;98112;-85
2021/09/05 00:15:13;;;;;;;10.32;5.82;;;;;;;15.22;58.47;100715.31;4864275;28;97570;-85
2021/09/05 00:17:40;;;;;;;7.68;5.53;;;;;;;15.12;58.32;100716.66;4880285;28;96517;-84
2021/09/05 00:20:06;;;;;;;9.40;5.93;;;;;;;15.18;58.28;100726.97;4864176;28;96959;-85
2021/09/05 00:22:32;;;;;;;8.52;5.07;;;;;;;15.14;58.38;100728.91;4879726;28;98055;-85
2021/09/05 00:24:59;;;;;;;10.77;5.47;;;;;;;15.10;58.06;100737.91;4863683;28;101459;-84
2021/09/05 00:27:24;;;;;;;7.40;5.40;;;;;;;14.91;58.56;100722.03;4879501;28;96752;-85
2021/09/05 00:29:50;;;;;;;10.75;5.88;;;;;;;14.98;58.63;100730.56;4864232;28;97027;-85
2021/09/05 00:32:15;;;;;;;7.20;5.35;;;;;;;15.10;58.22;100735.28;4879840;28;98456;-85
2021/09/05 00:34:41;;;;;;;6.90;5.50;;;;;;;14.84;58.84;100740.88;4864003;28;97973;-85
2021/09/05 00:37:07;;;;;;;8.85;5.35;;;;;;;14.92;58.68;100747.53;4848050;28;96690;-85
2021/09/05 00:39:33;;;;;;;7.57;5.10;;;;;;;14.78;59.15;100731.44;4864122;28;96947;-85
2021/09/05 00:41:59;;;;;;;7.72;5.50;;;;;;;14.76;58.89;100746.50;4882415;28;98507;-84
2021/09/05 00:44:25;;;;;;;5.85;4.88;;;;;;;14.76;59.03;100753.59;4866814;28;101531;-83
2021/09/05 00:46:51;;;;;;;7.25;5.05;;;;;;;14.65;59.01;100738.19;4898935;28;96588;-83
2021/09/05 00:49:16;;;;;;;7.38;5.05;;;;;;;14.68;58.70;100749.47;4867610;28;96942;-84
2021/09/05 00:51:43;;;;;;;8.55;5.47;;;;;;;14.62;59.41;100743.63;4899970;28;97473;-82
2021/09/05 00:54:14;;;;;;;7.72;5.35;;;;;;;14.64;59.04;100755.84;4883123;28;102084;-85
2021/09/05 00:56:44;;;;;;;11.30;5.38;;;;;;;14.56;58.75;100746.53;4882821;28;96595;-83
2021/09/05 00:59:19;;;;;;;9.75;5.72;;;;;;;14.57;59.17;100758.81;4868155;28;96864;-84
2021/09/05 01:01:45;;;;;;;8.13;4.72;;;;;;;14.50;58.71;100771.41;4867008;28;101347;-85
2021/09/05 01:04:13;;;;;;;10.07;5.15;;;;;;;14.47;59.05;100758.31;4882760;28;97958;-85
2021/09/05 01:06:40;;;;;;;7.55;4.63;;;;;;;14.43;59.27;100754.97;4867162;28;96593;-84
2021/09/05 01:09:09;;;;;;;10.18;5.20;;;;;;;14.38;59.24;100759.56;4867116;28;96951;-84
2021/09/05 01:11:37;;;;;;;6.30;5.07;;;;;;;14.46;59.27;100761.91;4866976;28;101972;-83
2021/09/05 01:14:05;;;;;;;9.07;5.07;;;;;;;14.50;58.96;100763.47;4866732;28;101431;-84
2021/09/05 01:16:33;;;;;;;6.32;5.00;;;;;;;14.47;58.67;100755.69;4882886;28;96533;-84
2021/09/05 01:19:19;;;;;;;9.57;5.03;;;;;;;14.48;59.15;100766.16;4869953;28;96707;-84
2021/09/05 01:22:15;;;;;;;8.35;5.03;;;;;;;14.36;58.55;100760.56;4870223;28;101561;-82
2021/09/05 01:24:59;;;;;;;7.68;5.20;;;;;;;14.32;59.12;100772.19;4885077;28;96987;-85
2021/09/05 01:27:48;;;;;;;6.15;4.78;;;;;;;14.26;59.35;100776.81;4878212;28;96942;-84
2021/09/05 01:30:40;;;;;;;11.27;4.97;;;;;;;14.33;59.19;100765.97;4832436;28;96810;-85
2021/09/05 01:33:31;;;;;;;;;;;;;;;14.26;59.40;100784.72;4850327;28;97869;-84
2021/09/05 01:35:56;;;;;;;7.18;4.53;;;;;;;14.23;59.36;100769.00;4863398;28;97801;-84
2021/09/05 01:38:54;;;;;;;12.10;5.38;;;;;;;14.27;59.44;100780.28;4845152;28;96922;-84
2021/09/05 01:41:39;;;;;;;7.03;4.80;;;;;;;14.14;59.81;100779.09;4863600;28;96648;-83
2021/09/05 01:44:17;;;;;;;6.13;4.35;;;;;;;14.06;59.24;100758.28;4860871;28;97006;-83
2021/09/05 01:47:09;;;;;;;11.77;4.70;;;;;;;14.13;59.93;100775.59;4863677;28;99333;-83
2021/09/05 01:49:57;;;;;;;8.18;4.90;;;;;;;14.13;59.38;100780.84;4852940;28;96879;-83
2021/09/05 01:52:45;;;;;;;10.00;5.72;;;;;;;14.03;59.63;100785.69;4853366;28;96835;-84
2021/09/05 01:55:34;;;;;;;10.32;4.63;;;;;;;14.04;59.77;100781.25;4834538;28;96897;-83
2021/09/05 01:58:11;;;;;;;9.07;5.35;;;;;;;14.08;59.54;100793.41;4847795;28;97872;-84
2021/09/05 02:01:01;;;;;;;5.80;4.53;;;;;;;14.07;59.66;100791.69;4866137;28;96682;-83
2021/09/05 02:03:45;;;;;;;7.20;4.15;;;;;;;14.04;59.74;100787.38;4849649;28;96955;-83
2021/09/05 02:06:33;;;;;;;9.50;4.55;;;;;;;13.99;60.05;100789.38;4849784;28;102192;-84
2021/09/05 02:09:31;;;;;;;6.95;4.80;;;;;;;14.09;59.74;100794.28;4855112;28;99602;-83
2021/09/05 02:12:16;;;;;;;7.80;4.60;;;;;;;14.07;59.42;100802.22;4851772;28;96964;-84
2021/09/05 02:15:02;;;;;;;6.65;4.38;;;;;;;14.02;59.50;100794.53;4863346;28;96872;-85
2021/09/05 02:17:46;;;;;;;8.15;4.57;;;;;;;14.00;59.27;100799.00;4864697;28;101684;-83
2021/09/05 02:20:29;;;;;;;6.85;4.60;;;;;;;14.00;59.44;100799.00;4835878;28;101799;-84
2021/09/05 02:23:24;;;;;;;6.60;4.47;;;;;;;13.96;59.53;100801.81;4837515;28;96844;-83
2021/09/05 02:26:10;;;;;;;5.57;4.35;;;;;;;13.90;59.10;100783.59;4867788;28;96807;-83
2021/09/05 02:28:55;;;;;;;6.55;4.05;;;;;;;13.95;59.28;100808.03;4860245;28;98055;-84
2021/09/05 02:31:39;;;;;;;6.28;4.63;;;;;;;13.91;59.08;100806.44;4881511;28;96997;-83
2021/09/05 02:34:31;;;;;;;5.88;4.25;;;;;;;13.81;59.08;100806.78;4872280;28;96861;-84
2021/09/05 02:37:32;;;;;;;5.70;4.35;;;;;;;13.85;59.69;100815.47;4874985;28;98495;-83
2021/09/05 02:40:22;;;;;;;6.45;4.18;;;;;;;13.80;59.55;100802.44;4868716;28;101387;-84
2021/09/05 02:43:07;;;;;;;8.38;4.65;;;;;;;13.86;59.16;100825.09;4855246;28;101227;-82
2021/09/05 02:45:51;;;;;;;7.57;5.47;;;;;;;13.76;59.11;100815.81;4881361;28;96776;-84
2021/09/05 02:48:43;;;;;;;6.55;4.22;;;;;;;13.72;60.16;100827.41;4884615;28;98427;-82
2021/09/05 02:51:29;;;;;;;7.70;3.80;;;;;;;13.77;59.52;100818.38;4883391;28;99537;-84
2021/09/05 02:54:13;;;;;;;8.93;4.43;;;;;;;13.80;59.40;100817.41;4881207;28;97044;-83
2021/09/05 02:57:05;;;;;;;8.45;4.97;;;;;;;13.84;59.33;100823.41;4884203;28;96659;-84
2021/09/05 02:59:53;;;;;;;6.90;4.65;;;;;;;13.74;59.29;100821.16;4881079;28;96841;-84
2021/09/05 03:02:37;;;;;;;6.95;4.47;;;;;;;13.68;59.43;100817.91;4867285;28;101922;-83
2021/09/05 03:05:38;;;;;;;6.28;4.90;;;;;;;13.67;60.02;100824.06;4874125;28;99328;-83
2021/09/05 03:08:23;;;;;;;11.45;4.90;;;;;;;13.59;59.76;100829.66;4845207;28;96843;-83
2021/09/05 03:11:15;;;;;;;6.70;4.55;;;;;;;13.57;60.20;100823.56;4881976;28;98920;-84
2021/09/05 03:14:01;;;;;;;5.68;4.18;;;;;;;13.69;59.76;100830.16;4880594;28;99694;-84
2021/09/05 03:16:52;;;;;;;5.40;4.40;;;;;;;13.55;59.63;100813.06;4897349;28;100462;-84
2021/09/05 03:19:47;;;;;;;7.45;5.15;;;;;;;13.59;59.64;100822.59;4851395;28;96899;-83
2021/09/05 03:22:30;;;;;;;10.48;6.40;;;;;;;13.58;59.33;100817.38;4883958;28;96574;-84
2021/09/05 03:25:12;;;;;;;6.55;4.72;;;;;;;13.49;60.08;100823.84;4852748;28;101558;-84
2021/09/05 03:28:00;;;;;;;7.60;4.88;;;;;;;13.52;59.49;100831.66;4869709;28;99462;-84
2021/09/05 03:30:48;;;;;;;8.52;4.88;;;;;;;13.51;59.11;100827.31;4881676;28;96924;-83
2021/09/05 03:33:48;;;;;;;9.13;4.75;;;;;;;13.53;59.42;100835.19;4868897;28;98141;-84
2021/09/05 03:36:40;;;;;;;12.27;5.07;;;;;;;13.58;59.44;100833.19;4871205;28;99772;-83
2021/09/05 03:39:21;;;;;;;10.60;5.10;;;;;;;13.42;59.94;100811.00;4853237;28;102073;-84
2021/09/05 03:42:06;;;;;;;11.02;5.55;;;;;;;13.51;59.89;100843.13;4867307;28;96604;-84
2021/09/05 03:44:43;;;;;;;7.63;4.65;;;;;;;13.41;60.20;100835.63;4866138;28;96835;-84
2021/09/05 03:47:32;;;;;;;7.38;4.93;;;;;;;13.48;60.36;100843.25;4880547;28;99989;-83
2021/09/05 03:50:10;;;;;;;6.53;4.60;;;;;;;13.46;59.99;100837.16;4865908;28;101504;-83
2021/09/05 03:52:39;;;;;;;8.40;4.60;;;;;;;13.31;59.86;100817.50;4864609;28;96616;-84
2021/09/05 03:55:06;;;;;;;6.18;4.63;;;;;;;13.48;59.77;100847.66;4864695;28;96987;-83
2021/09/05 03:57:33;;;;;;;7.22;4.90;;;;;;;13.46;60.04;100845.06;4848853;28;100305;-84
2021/09/05 03:59:58;;;;;;;7.70;3.90;;;;;;;13.44;60.27;100846.03;4864037;28;100227;-84
2021/09/05 04:02:24;;;;;;;8.52;4.72;;;;;;;13.30;60.78;100833.41;4880086;28;96670;-84
2021/09/05 04:04:50;;;;;;;6.10;4.70;;;;;;;13.34;60.69;100841.13;4849204;28;96630;-83
2021/09/05 04:07:18;;;;;;;7.47;4.47;;;;;;;13.32;60.60;100845.63;4864047;28;98591;-84
2021/09/05 04:12:27;;;;;;;7.40;5.05;;;;;;;13.33;60.89;100855.22;4882464;28;96623;-84
2021/09/05 04:14:53;;;;;;;6.18;4.65;;;;;;;13.35;60.61;100858.69;4863143;28;97060;-83
2021/09/05 04:17:19;;;;;;;8.43;4.75;;;;;;;13.32;60.26;100850.00;4879735;28;100263;-83
2021/09/05 04:19:44;;;;;;;7.72;3.97;;;;;;;13.31;60.70;100859.69;4864296;28;97609;-81
2021/09/05 04:22:10;;;;;;;6.90;4.35;;;;;;;13.32;60.30;100855.28;4864203;28;96613;-84
2021/09/05 04:24:35;;;;;;;9.82;4.60;;;;;;;13.35;60.38;100863.97;4880168;28;96996;-84
2021/09/05 04:27:01;;;;;;;13.63;5.25;;;;;;;13.40;60.46;100876.97;4862884;28;101841;-83
2021/09/05 04:29:27;;;;;;;7.00;4.25;;;;;;;13.39;59.92;100859.41;4880234;28;97557;-83
2021/09/05 04:31:53;;;;;;;8.65;4.38;;;;;;;13.49;59.93;100881.88;4863910;28;96640;-84
2021/09/05 04:34:18;;;;;;;5.75;4.78;;;;;;;13.47;60.10;100874.97;4848459;28;96673;-84
2021/09/05 04:36:43;;;;;;;8.32;4.60;;;;;;;13.45;60.40;100877.66;4863165;28;101770;-85
2021/09/05 04:39:09;;;;;;;5.90;4.05;;;;;;;13.54;60.01;100889.63;4879681;28;98529;-83
2021/09/05 04:41:35;;;;;;;6.35;4.63;;;;;;;13.61;59.54;100885.84;4880037;28;96579;-84
2021/09/05 04:44:00;;;;;;;5.97;4.43;;;;;;;13.61;59.86;100890.25;4879488;28;96914;-83
2021/09/05 04:46:26;;;;;;;8.10;4.35;;;;;;;13.67;59.52;100896.19;4879512;28;97786;-84
2021/09/05 04:48:51;;;;;;;5.78;4.60;;;;;;;13.68;58.97;100887.34;4863352;28;101536;-84
2021/09/05 04:51:16;;;;;;;8.52;4.80;;;;;;;13.76;59.53;100902.91;4896907;28;96525;-84
2021/09/05 04:53:42;;;;;;;9.23;4.35;;;;;;;13.74;58.97;100899.44;4848265;28;96884;-84
2021/09/05 04:56:07;;;;;;;6.50;4.32;;;;;;;13.89;59.12;100905.91;4863357;28;101382;-83
2021/09/05 04:58:33;;;;;;;8.40;4.78;;;;;;;14.03;59.32;100915.00;4863449;28;101107;-84
2021/09/05 05:00:59;;;;;;;5.28;4.10;;;;;;;14.25;58.71;100907.13;4879321;28;96670;-84
2021/09/05 05:03:24;;;;;;;8.13;4.18;;;;;;;14.61;57.19;100911.00;4864086;28;96806;-83
2021/09/05 05:05:49;;;;;;;8.52;4.55;;;;;;;14.91;56.41;100914.13;4863752;28;98249;-84
2021/09/05 05:08:15;;;;;;;6.63;4.53;;;;;;;15.03;56.11;100918.03;4847382;28;101621;-84
2021/09/05 05:10:40;;;;;;;8.55;4.75;;;;;;;15.17;55.86;100928.88;4863497;28;96549;-84
2021/09/05 05:13:06;;;;;;;9.40;4.78;;;;;;;15.28;55.33;100921.31;4879010;28;96997;-84
2021/09/05 05:15:32;;;;;;;5.63;4.60;;;;;;;15.35;55.47;100935.13;4863020;28;101163;-84
2021/09/05 05:17:57;;;;;;;7.15;4.30;;;;;;;15.35;55.29;100935.97;4863367;28;101596;-83
2021/09/05 05:20:23;;;;;;;8.07;4.57;;;;;;;15.43;55.23;100934.81;4864026;28;96622;-83
2021/09/05 05:22:49;;;;;;;7.88;4.28;;;;;;;15.40;55.81;100936.66;4847531;28;96700;-84
2021/09/05 05:25:14;;;;;;;9.02;4.63;;;;;;;15.50;55.03;100937.09;4878147;28;101548;-84
2021/09/05 05:27:40;;;;;;;5.10;4.35;;;;;;;15.62;54.94;100944.50;4880902;28;101261;-84
2021/09/05 05:30:06;;;;;;;6.55;4.28;;;;;;;15.65;55.08;100947.91;4866262;28;96653;-84
2021/09/05 05:32:31;;;;;;;5.93;4.40;;;;;;;15.64;55.29;100944.41;4882730;28;96899;-84
2021/09/05 05:34:57;;;;;;;7.10;4.60;;;;;;;15.69;55.31;100947.75;4850277;28;101589;-83
2021/09/05 05:37:23;;;;;;;7.70;4.28;;;;;;;15.67;54.66;100931.03;4850457;28;101256;-84
2021/09/05 05:39:48;;;;;;;7.68;4.90;;;;;;;15.83;54.64;100947.13;4883027;28;96545;-84
2021/09/05 05:42:14;;;;;;;7.38;5.07;;;;;;;15.74;54.86;100944.91;4866766;28;96896;-84
2021/09/05 05:44:40;;;;;;;8.10;4.53;;;;;;;16.05;54.45;100957.56;4866041;28;101389;-84
2021/09/05 05:47:06;;;;;;;8.25;4.72;;;;;;;16.21;53.86;100958.56;4882207;28;97500;-84
2021/09/05 05:49:34;;;;;;;8.32;4.60;;;;;;;16.26;54.10;100945.09;4881477;28;96555;-83
2021/09/05 05:51:59;;;;;;;8.02;4.80;;;;;;;16.38;52.88;100964.88;4865894;28;96839;-84
2021/09/05 05:54:25;;;;;;;7.05;4.78;;;;;;;16.45;52.73;100966.28;4881543;28;97719;-83
2021/09/05 05:56:50;;;;;;;6.30;4.43;;;;;;;16.44;52.57;100960.13;4849961;28;101532;-83
2021/09/05 05:59:16;;;;;;;7.07;4.30;;;;;;;16.49;52.52;100957.22;4866267;28;96526;-84
2021/09/05 06:01:41;;;;;;;9.27;5.03;;;;;;;16.60;52.23;100969.97;4866028;28;96993;-84
2021/09/05 06:04:10;;;;;;;7.60;4.47;;;;;;;16.72;52.17;100967.56;4849866;28;101211;-84
2021/09/05 06:06:39;;;;;;;9.98;4.55;;;;;;;16.71;52.03;100957.91;4866072;28;101444;-83
2021/09/05 06:09:05;;;;;;;6.40;5.13;;;;;;;17.16;51.51;100969.84;4866110;28;96697;-84
2021/09/05 06:11:31;;;;;;;11.10;4.75;;;;;;;17.68;49.66;100963.56;4864894;28;96880;-84
2021/09/05 06:13:56;;;;;;;6.95;4.93;;;;;;;18.20;49.03;100973.19;4881189;28;98149;-85
2021/09/05 06:16:22;;;;;;;8.77;5.70;;;;;;;18.88;47.22;100949.84;4865386;28;101397;-85
2021/09/05 06:18:47;;;;;;;8.05;5.10;;;;;;;20.07;45.20;100975.44;4865787;28;96594;-84
2021/09/05 06:21:13;;;;;;;8.75;4.72;;;;;;;21.60;42.54;100975.97;4849975;28;96702;-86
2021/09/05 06:23:38;;;;;;;8.80;5.00;;;;;;;22.70;40.23;100977.88;4881861;28;97003;-85
2021/09/05 06:26:04;;;;;;;6.38;4.45;;;;;;;23.67;38.22;100976.69;4864819;28;101157;-84
2021/09/05 06:28:30;;;;;;;6.97;4.65;;;;;;;24.12;36.85;100960.63;4865807;28;96633;-85
2021/09/05 06:30:55;;;;;;;5.93;4.70;;;;;;;25.22;35.90;100982.88;4881570;28;96892;-85
2021/09/05 06:33:20;;;;;;;5.93;4.88;;;;;;;25.93;34.78;100976.75;4865291;28;100562;-84
2021/09/05 06:35:46;;;;;;;6.50;5.00;;;;;;;26.77;33.28;100982.63;4865546;28;98501;-85
2021/09/05 06:38:12;;;;;;;7.53;5.18;;;;;;;26.98;32.81;100976.25;4864043;28;96559;-84
2021/09/05 06:40:37;;;;;;;6.70;4.95;;;;;;;27.66;31.96;100973.44;4881440;28;96629;-86
2021/09/05 06:43:03;;;;;;;7.57;4.70;;;;;;;28.36;30.79;100979.22;4849513;28;100767;-84
2021/09/05 06:45:28;;;;;;;6.38;4.72;;;;;;;28.31;31.14;100973.47;4880998;28;100927;-75
2021/09/05 06:47:54;;;;;;;5.78;5.00;;;;;;;28.16;31.85;100973.13;4849183;28;96657;-77
2021/09/05 06:50:20;;;;;;;8.95;4.43;;;;;;;26.27;33.80;100974.63;4865032;28;96961;-77
2021/09/05 06:52:46;;;;;;;6.82;4.20;;;;;;;24.96;35.91;100982.38;4864801;28;98004;-76
2021/09/05 06:55:11;;;;;;;5.80;4.63;;;;;;;25.03;36.03;100986.22;4881133;28;97259;-84
2021/09/05 06:57:37;;;;;;;8.23;4.45;;;;;;;25.83;34.06;100982.13;4864948;28;96640;-83
2021/09/05 07:00:03;;;;;;;8.68;5.13;;;;;;;25.99;33.26;100976.22;4880756;28;96979;-84
2021/09/05 07:02:29;;;;;;;9.65;5.78;;;;;;;25.82;33.80;100992.97;4895810;28;101566;-85
2021/09/05 07:04:54;;;;;;;10.60;5.47;;;;;;;26.92;32.28;100993.84;4864701;28;101274;-84
2021/09/05 07:07:20;;;;;;;8.05;4.93;;;;;;;27.93;30.91;100997.78;4848973;28;96628;-84
2021/09/05 07:09:46;;;;;;;7.68;4.57;;;;;;;28.33;30.13;101002.00;4880734;28;96860;-84
2021/09/05 07:12:11;;;;;;;9.35;5.10;;;;;;;28.09;30.28;101007.09;4864583;28;101597;-84
2021/09/05 07:14:37;;;;;;;7.25;5.40;;;;;;;29.21;29.25;101004.94;4880568;28;101016;-84
2021/09/05 07:17:02;;;;;;;8.18;4.75;;;;;;;29.41;28.54;101007.41;4864939;28;96671;-83
2021/09/05 07:19:28;;;;;;;7.53;4.55;;;;;;;30.14;27.91;101001.63;4881507;28;96815;-85
2021/09/05 07:21:54;;;;;;;7.03;4.47;;;;;;;31.26;26.38;101006.56;4864507;28;102030;-82
2021/09/05 07:24:19;;;;;;;5.00;4.43;;;;;;;31.17;25.84;101007.59;4848812;28;100093;-82
2021/09/05 07:26:45;;;;;;;6.80;4.97;;;;;;;32.04;25.11;100998.84;4848164;28;96611;-82
2021/09/05 07:29:10;;;;;;;7.68;4.97;;;;;;;32.65;24.62;101003.44;4865867;28;96966;-88
2021/09/05 07:31:36;;;;;;;6.65;4.65;;;;;;;33.21;23.89;101002.34;4882921;28;98611;-89
2021/09/05 07:34:01;;;;;;;4.57;4.07;;;;;;;33.56;23.82;101001.69;4850306;28;101943;-91
2021/09/05 07:36:27;;;;;;;4.50;4.10;;;;;;;34.21;23.18;101010.13;4881917;28;96609;-83
2021/09/05 07:38:52;;;;;;;6.60;4.07;;;;;;;34.52;22.83;101003.59;4865293;28;96899;-81
2021/09/05 07:41:18;;;;;;;5.72;4.10;;;;;;;35.10;22.29;101004.41;4880834;28;98130;-84
2021/09/05 07:43:44;;;;;;;6.95;4.30;;;;;;;35.02;22.34;101010.81;4864832;28;100346;-84
2021/09/05 07:46:09;;;;;;;7.20;4.32;;;;;;;35.44;21.54;101011.84;4865371;28;96509;-85
2021/09/05 07:48:35;;;;;;;6.18;4.47;;;;;;;35.50;21.76;101004.72;4864811;28;96839;-83
2021/09/05 07:51:00;;;;;;;4.72;4.20;;;;;;;35.68;21.46;101020.63;4864013;28;97763;-83
2021/09/05 07:53:26;;;;;;;7.82;4.82;;;;;;;36.15;21.07;101019.00;4880227;28;97932;-82
2021/09/05 07:55:51;;;;;;;5.88;4.90;;;;;;;36.57;21.51;101023.41;4864513;28;96558;-80
2021/09/05 07:58:17;;;;;;;5.78;5.22;;;;;;;36.36;20.71;101029.81;4848763;28;96958;-81
2021/09/05 08:00:42;;;;;;;6.80;4.43;;;;;;;35.87;20.80;101021.78;4863921;28;101269;-83
2021/09/05 08:03:08;;;;;;;4.80;4.25;;;;;;;35.83;21.65;101018.59;4866598;28;97726;-88
2021/09/05 08:05:34;;;;;;;5.22;4.60;;;;;;;35.53;21.46;101024.28;4881734;28;96689;-89
2021/09/05 08:07:59;;;;;;;6.68;4.45;;;;;;;35.53;21.76;101028.91;4869947;28;96991;-88
2021/09/05 08:10:25;;;;;;;5.32;4.82;;;;;;;35.11;22.21;101031.50;4867030;28;101449;-89
2021/09/05 08:12:52;;;;;;;5.65;4.03;;;;;;;35.27;21.88;101035.84;4883582;28;98335;-91
2021/09/05 08:15:17;;;;;;;6.38;4.90;;;;;;;34.73;21.71;101035.50;4865748;28;96683;-90
2021/09/05 08:17:43;;;;;;;4.43;4.03;;;;;;;34.96;22.06;101032.59;4881363;28;96807;-88
2021/09/05 08:20:09;;;;;;;5.18;4.32;;;;;;;34.46;22.35;101040.63;4864913;28;101089;-90
2021/09/05 08:22:35;;;;;;;6.45;4.60;;;;;;;35.21;21.80;101041.25;4849452;28;101250;-87
2021/09/05 08:25:00;;;;;;;4.55;4.15;;;;;;;35.40;21.15;101037.81;4864012;28;96673;-86
2021/09/05 08:27:26;;;;;;;4.60;3.97;;;;;;;35.79;20.84;101033.72;4864220;28;96966;-88
2021/09/05 08:29:51;;;;;;;6.53;4.15;;;;;;;35.36;21.72;101045.56;4880826;28;97479;-87
2021/09/05 08:32:17;;;;;;;5.65;4.53;;;;;;;35.87;20.98;101040.88;4848958;28;101465;-87
2021/09/05 08:34:42;;;;;;;5.28;4.20;;;;;;;36.40;20.67;101036.56;4849249;28;96652;-88
2021/09/05 08:37:08;;;;;;;9.50;4.20;;;;;;;35.53;20.54;101048.00;4864722;28;96928;-85
2021/09/05 08:39:33;;;;;;;4.40;4.00;;;;;;;34.71;21.64;101041.16;4879917;28;98226;-88
2021/09/05 08:41:59;;;;;;;5.85;3.92;;;;;;;34.94;21.82;101043.69;4864220;28;102049;-86
2021/09/05 08:44:25;;;;;;;6.45;3.80;;;;;;;35.17;21.83;101043.53;4848973;28;96730;-87
2021/09/05 08:46:52;;;;;;;6.10;4.43;;;;;;;34.85;21.50;101048.44;4848942;28;96922;-86
2021/09/05 08:49:18;;;;;;;6.78;4.03;;;;;;;34.85;22.02;101042.97;4878918;28;101109;-85
2021/09/05 08:51:44;;;;;;;5.50;4.35;;;;;;;34.88;21.92;101036.31;4879890;28;97470;-79
2021/09/05 08:54:10;;;;;;;4.68;4.00;;;;;;;34.39;22.00;101048.72;4879410;28;96551;-79
2021/09/05 08:56:35;;;;;;;4.88;4.40;;;;;;;33.32;23.16;101051.72;4879217;28;96915;-79
2021/09/05 08:59:00;;;;;;;5.28;4.78;;;;;;;34.36;22.70;101049.09;4863053;28;97597;-79
2021/09/05 09:01:28;;;;;;;4.38;3.88;;;;;;;34.29;23.08;101050.06;4879615;28;97501;-79
2021/09/05 09:04:09;;;;;;;6.13;3.60;;;;;;;34.52;21.47;101041.75;4866319;28;96594;-79
2021/09/05 09:06:40;;;;;;;5.97;4.03;;;;;;;34.63;21.48;101049.44;4882875;28;96769;-79
2021/09/05 09:09:06;;;;;;;5.85;3.80;;;;;;;34.13;22.42;101040.22;4882477;28;98075;-81
2021/09/05 09:11:57;;;;;;;5.63;4.63;;;;;;;34.30;22.22;101049.88;4850924;28;101418;-80
2021/09/05 09:14:45;;;;;;;5.60;3.83;;;;;;;34.33;21.65;101059.56;4866638;28;96591;-78
2021/09/05 09:17:12;;;;;;;8.55;4.18;;;;;;;33.85;22.42;101050.88;4882483;28;96931;-76
2021/09/05 09:19:42;;;;;;;4.10;3.70;;;;;;;33.96;22.12;101042.25;4881782;28;101555;-76
2021/09/05 09:22:16;;;;;;;6.55;4.13;;;;;;;33.77;22.21;101043.66;4898016;28;101384;-77
2021/09/05 09:24:42;;;;;;;6.47;4.40;;;;;;;33.71;22.50;101047.97;4867030;28;96645;-83
2021/09/05 09:27:08;;;;;;;5.50;3.55;;;;;;;33.57;22.58;101036.03;4850848;28;96958;-79
2021/09/05 09:29:35;;;;;;;6.97;3.95;;;;;;;33.77;22.90;101040.94;4882151;28;97501;-87
2021/09/05 09:32:10;;;;;;;7.03;4.00;;;;;;;33.67;22.52;101046.66;4850527;28;100747;-86
2021/09/05 09:34:43;;;;;;;4.88;3.80;;;;;;;34.37;21.91;101028.16;4882793;28;96604;-87
2021/09/05 09:37:22;;;;;;;5.35;3.80;;;;;;;34.27;22.81;101039.34;4882711;28;96959;-85
2021/09/05 09:39:49;;;;;;;;;;;;;;;34.38;22.32;101048.91;4883504;28;97478;-85
2021/09/05 09:42:39;;;;;;;4.90;4.40;;;;;;;34.23;22.07;101052.50;4882541;28;98256;-87
2021/09/05 09:45:13;;;;;;;4.45;4.05;;;;;;;34.04;22.79;101034.03;4882979;28;96569;-86
2021/09/05 09:47:47;;;;;;;4.32;3.92;;;;;;;34.38;22.46;101047.00;4867123;28;96798;-85
2021/09/05 09:50:14;;;;;;;3.97;3.67;;;;;;;33.70;21.83;101049.00;4850966;28;100597;-86
2021/09/05 09:52:40;;;;;;;3.65;3.35;;;;;;;33.22;21.80;101033.94;4851055;28;101529;-87
2021/09/05 09:55:06;;;;;;;4.20;3.80;;;;;;;33.35;21.78;101032.31;4851032;28;96773;-87
2021/09/05 09:57:32;;;;;;;4.38;3.97;;;;;;;33.07;22.58;101034.75;4867132;28;96918;-85
2021/09/05 09:59:57;;;;;;;3.85;3.55;;;;;;;32.94;22.16;101036.38;4866638;28;101292;-83
2021/09/05 10:02:27;;;;;;;3.65;3.35;;;;;;;32.14;23.06;101034.75;4899523;28;98190;-86
2021/09/05 10:04:54;;;;;;;5.50;3.53;;;;;;;31.84;24.06;101041.78;4867677;28;96721;-86
2021/09/05 10:07:22;;;;;;;4.50;3.40;;;;;;;31.25;24.55;101037.44;4882532;28;97012;-85
2021/09/05 10:09:48;;;;;;;4.22;3.83;;;;;;;31.02;24.61;101045.38;4899599;28;98219;-85
2021/09/05 10:12:15;;;;;;;5.85;3.63;;;;;;;30.29;24.72;101037.91;4882552;28;98034;-87
2021/09/05 10:14:41;;;;;;;3.70;3.40;;;;;;;30.21;25.12;101041.44;4881923;28;96562;-85
2021/09/05 10:17:07;;;;;;;3.65;3.35;;;;;;;29.81;25.96;101035.78;4882390;28;97007;-86
2021/09/05 10:19:37;;;;;;;4.10;3.45;;;;;;;29.29;26.16;101044.69;4882934;28;99770;-84
2021/09/05 10:22:03;;;;;;;4.32;4.03;;;;;;;28.71;26.55;101037.88;4884428;28;97394;-86
2021/09/05 10:24:41;;;;;;;4.22;3.53;;;;;;;28.39;27.48;101046.41;4884034;28;96538;-86
2021/09/05 10:27:06;;;;;;;3.92;3.30;;;;;;;27.65;27.99;101031.91;4866148;28;96790;-87
2021/09/05 10:29:32;;;;;;;6.00;3.50;;;;;;;27.28;28.46;101035.38;4866578;28;100477;-86
2021/09/05 10:31:57;;;;;;;3.95;3.55;;;;;;;27.15;28.98;101034.84;4866552;28;101484;-82
2021/09/05 10:34:37;;;;;;;3.83;3.50;;;;;;;27.08;29.50;101034.53;4866878;28;96678;-86
2021/09/05 10:37:13;;;;;;;4.40;3.58;;;;;;;26.83;29.57;101017.06;4882355;28;96614;-87
2021/09/05 10:40:09;;;;;;;3.50;3.20;;;;;;;26.31;29.51;101045.16;4881829;28;100573;-88
2021/09/05 10:42:54;;;;;;;4.07;3.42;;;;;;;26.07;30.12;101024.81;4850516;28;101532;-87
2021/09/05 10:45:21;;;;;;;5.38;3.20;;;;;;;25.78;30.81;101037.25;4865709;28;96666;-87
2021/09/05 10:47:46;;;;;;;4.10;3.60;;;;;;;25.65;30.67;101030.22;4866333;28;96564;-87
2021/09/05 10:50:35;;;;;;;5.60;3.40;;;;;;;25.40;31.18;101036.03;4865949;28;100308;-86
2021/09/05 10:53:14;;;;;;;4.13;3.00;;;;;;;25.51;31.61;101039.50;4881426;28;100614;-83
2021/09/05 10:56:11;;;;;;;3.78;3.10;;;;;;;24.89;31.78;101040.22;4866455;28;96548;-87
2021/09/05 10:58:39;;;;;;;8.40;3.25;;;;;;;24.33;32.44;101046.56;4865910;28;96863;-84
2021/09/05 11:01:24;;;;;;;3.20;2.90;;;;;;;24.30;33.24;101043.28;4881654;28;97650;-88
2021/09/05 11:04:15;;;;;;;3.38;3.08;;;;;;;23.96;33.66;101043.25;4865886;28;101383;-87
2021/09/05 11:06:44;;;;;;;3.35;3.05;;;;;;;23.88;34.11;101043.00;4866053;28;96805;-86
2021/09/05 11:09:19;;;;;;;3.97;3.40;;;;;;;23.92;33.36;101031.09;4882087;28;96817;-86
2021/09/05 11:12:11;;;;;;;4.40;4.00;;;;;;;24.00;33.96;101042.06;4881418;28;98651;-87
2021/09/05 11:14:38;;;;;;;4.03;3.28;;;;;;;23.57;33.70;101047.22;4898852;28;98409;-86
2021/09/05 11:17:07;;;;;;;3.30;3.00;;;;;;;23.42;34.10;101034.03;4882144;28;96723;-87
2021/09/05 11:19:37;;;;;;;3.95;3.58;;;;;;;23.32;34.31;101046.41;4881824;28;96823;-87
2021/09/05 11:22:06;;;;;;;4.15;3.33;;;;;;;23.24;34.39;101043.44;4849675;28;101494;-83
2021/09/05 11:24:34;;;;;;;4.40;3.35;;;;;;;23.33;34.22;101047.25;4881072;28;98442;-86
2021/09/05 11:27:05;;;;;;;3.45;3.10;;;;;;;23.17;34.96;101043.06;4849604;28;96899;-83
2021/09/05 11:29:32;;;;;;;3.28;2.97;;;;;;;23.06;35.20;101029.63;4881949;28;96781;-87
2021/09/05 11:32:01;;;;;;;3.85;3.10;;;;;;;23.10;35.22;101043.66;4865476;28;100622;-87
2021/09/05 11:34:28;;;;;;;3.85;3.40;;;;;;;23.15;35.85;101045.00;4865560;28;101641;-87
2021/09/05 11:36:55;;;;;;;4.25;3.83;;;;;;;23.24;35.98;101046.13;4898181;28;96604;-86
2021/09/05 11:39:21;;;;;;;3.97;3.20;;;;;;;23.21;34.71;101032.97;4865575;28;96648;-87
2021/09/05 11:41:54;;;;;;;3.65;3.17;;;;;;;23.14;34.96;101042.44;4849577;28;100259;-86
2021/09/05 11:44:28;;;;;;;3.50;2.97;;;;;;;23.20;35.67;101044.66;4880789;28;101503;-87